Terminal Aerodrome Forecast
Issued by NWS Twin Cities, MN

Home | Current Version | Previous Version | Text Only | Print | Product List | Glossary Off
Versions: 1 2 3 4 5 6 7 8 9 10 11 12 13 14 15 16 17 18

602
FTUS43 KMPX 231745
TAFEAU
TAF
KEAU 231745Z 2318/2418 26012KT P6SM OVC012
     FM240000 26005KT P6SM FEW012
     FM240500 00000KT 4SM BR SKC
     FM240800 00000KT 3/4SM BR VV005
     FM241500 10007KT P6SM SCT008 BKN015 OVC100=

USA.gov is the U.S. government's official web portal to all federal, state and local government web resources and services.